sensor_id;sensor_type;location;lat;lon;timestamp;pressure;altitude;pressure_sealevel;temperature;humidity
2397;BME280;1209;48.410;9.054;2023-05-14T00:00:13;96227.34;;;11.30;100.00
2397;BME280;1209;48.410;9.054;2023-05-14T00:02:39;96221.50;;;11.28;100.00
2397;BME280;1209;48.410;9.054;2023-05-14T00:05:05;96217.44;;;11.26;100.00
2397;BME280;1209;48.410;9.054;2023-05-14T00:07:31;96216.34;;;11.20;100.00
2397;BME280;1209;48.410;9.054;2023-05-14T00:09:57;96214.63;;;11.27;100.00
2397;BME280;1209;48.410;9.054;2023-05-14T00:12:22;96215.44;;;11.28;100.00
2397;BME280;1209;48.410;9.054;2023-05-14T00:14:48;96221.03;;;11.25;100.00
2397;BME280;1209;48.410;9.054;2023-05-14T00:17:13;96219.25;;;11.25;100.00
2397;BME280;1209;48.410;9.054;2023-05-14T00:19:38;96216.44;;;11.27;100.00
2397;BME280;1209;48.410;9.054;2023-05-14T00:22:06;96206.25;;;11.32;100.00
2397;BME280;1209;48.410;9.054;2023-05-14T00:24:32;96207.44;;;11.29;100.00
2397;BME280;1209;48.410;9.054;2023-05-14T00:26:58;96203.91;;;11.22;100.00
2397;BME280;1209;48.410;9.054;2023-05-14T00:29:23;96197.69;;;11.23;100.00
2397;BME280;1209;48.410;9.054;2023-05-14T00:31:48;96193.81;;;11.19;100.00
2397;BME280;1209;48.410;9.054;2023-05-14T00:34:14;96186.16;;;11.18;100.00
2397;BME280;1209;48.410;9.054;2023-05-14T00:36:39;96177.88;;;11.14;100.00
2397;BME280;1209;48.410;9.054;2023-05-14T00:39:04;96182.00;;;11.09;100.00
2397;BME280;1209;48.410;9.054;2023-05-14T00:41:30;96181.19;;;11.08;100.00
2397;BME280;1209;48.410;9.054;2023-05-14T00:43:55;96183.63;;;11.10;100.00
2397;BME280;1209;48.410;9.054;2023-05-14T00:46:21;96176.59;;;11.10;100.00
2397;BME280;1209;48.410;9.054;2023-05-14T00:48:46;96183.53;;;11.03;100.00
2397;BME280;1209;48.410;9.054;2023-05-14T00:51:11;96178.31;;;11.03;100.00
2397;BME280;1209;48.410;9.054;2023-05-14T00:53:37;96179.66;;;10.99;100.00
2397;BME280;1209;48.410;9.054;2023-05-14T00:56:03;96170.94;;;10.92;100.00
2397;BME280;1209;48.410;9.054;2023-05-14T00:58:29;96175.16;;;10.93;100.00
2397;BME280;1209;48.410;9.054;2023-05-14T01:00:54;96177.38;;;10.81;100.00
2397;BME280;1209;48.410;9.054;2023-05-14T01:03:20;96169.91;;;10.78;100.00
2397;BME280;1209;48.410;9.054;2023-05-14T01:05:57;96174.03;;;10.72;100.00
2397;BME280;1209;48.410;9.054;2023-05-14T01:16:57;96159.97;;;10.59;100.00
2397;BME280;1209;48.410;9.054;2023-05-14T01:19:39;96161.50;;;10.68;100.00
2397;BME280;1209;48.410;9.054;2023-05-14T01:22:05;96166.72;;;10.68;100.00
2397;BME280;1209;48.410;9.054;2023-05-14T01:24:31;96160.69;;;10.67;100.00
2397;BME280;1209;48.410;9.054;2023-05-14T01:29:49;96157.00;;;10.77;100.00
2397;BME280;1209;48.410;9.054;2023-05-14T01:32:17;96156.56;;;10.73;100.00
2397;BME280;1209;48.410;9.054;2023-05-14T01:34:44;96150.53;;;10.72;100.00
2397;BME280;1209;48.410;9.054;2023-05-14T01:37:11;96155.22;;;10.77;100.00
2397;BME280;1209;48.410;9.054;2023-05-14T01:39:38;96160.34;;;10.70;100.00
2397;BME280;1209;48.410;9.054;2023-05-14T01:42:05;96153.94;;;10.58;100.00
2397;BME280;1209;48.410;9.054;2023-05-14T01:44:32;96161.59;;;10.60;100.00
2397;BME280;1209;48.410;9.054;2023-05-14T01:46:57;96156.19;;;10.61;100.00
2397;BME280;1209;48.410;9.054;2023-05-14T01:49:22;96153.75;;;10.60;100.00
2397;BME280;1209;48.410;9.054;2023-05-14T01:51:48;96148.81;;;10.65;100.00
2397;BME280;1209;48.410;9.054;2023-05-14T01:54:13;96147.09;;;10.72;100.00
2397;BME280;1209;48.410;9.054;2023-05-14T01:56:39;96147.47;;;10.69;100.00
2397;BME280;1209;48.410;9.054;2023-05-14T01:59:04;96146.00;;;10.66;100.00
2397;BME280;1209;48.410;9.054;2023-05-14T02:01:29;96154.22;;;10.63;100.00
2397;BME280;1209;48.410;9.054;2023-05-14T02:03:55;96154.56;;;10.60;100.00
2397;BME280;1209;48.410;9.054;2023-05-14T02:06:21;96158.16;;;10.59;100.00
2397;BME280;1209;48.410;9.054;2023-05-14T02:08:46;96153.00;;;10.51;100.00
2397;BME280;1209;48.410;9.054;2023-05-14T02:11:11;96148.16;;;10.48;100.00
2397;BME280;1209;48.410;9.054;2023-05-14T02:13:37;96157.06;;;10.54;100.00
2397;BME280;1209;48.410;9.054;2023-05-14T02:16:02;96159.22;;;10.50;100.00
2397;BME280;1209;48.410;9.054;2023-05-14T02:18:28;96155.97;;;10.48;100.00
2397;BME280;1209;48.410;9.054;2023-05-14T02:20:53;96157.69;;;10.41;100.00
2397;BME280;1209;48.410;9.054;2023-05-14T02:23:18;96164.44;;;10.50;100.00
2397;BME280;1209;48.410;9.054;2023-05-14T02:25:44;96151.69;;;10.55;100.00
2397;BME280;1209;48.410;9.054;2023-05-14T02:28:09;96151.50;;;10.57;100.00
2397;BME280;1209;48.410;9.054;2023-05-14T02:30:34;96152.94;;;10.59;100.00
2397;BME280;1209;48.410;9.054;2023-05-14T02:32:59;96144.03;;;10.68;100.00
2397;BME280;1209;48.410;9.054;2023-05-14T02:35:25;96142.59;;;10.66;100.00
2397;BME280;1209;48.410;9.054;2023-05-14T02:37:50;96152.47;;;10.56;100.00
2397;BME280;1209;48.410;9.054;2023-05-14T02:40:15;96144.13;;;10.37;100.00
2397;BME280;1209;48.410;9.054;2023-05-14T02:42:41;96150.69;;;10.56;100.00
2397;BME280;1209;48.410;9.054;2023-05-14T02:45:06;96140.25;;;10.71;100.00
2397;BME280;1209;48.410;9.054;2023-05-14T02:47:32;96147.28;;;10.70;100.00
2397;BME280;1209;48.410;9.054;2023-05-14T02:49:57;96151.34;;;10.73;100.00
2397;BME280;1209;48.410;9.054;2023-05-14T02:52:22;96145.31;;;10.72;100.00
2397;BME280;1209;48.410;9.054;2023-05-14T02:54:48;96147.09;;;10.72;100.00
2397;BME280;1209;48.410;9.054;2023-05-14T02:57:13;96150.44;;;10.66;100.00
2397;BME280;1209;48.410;9.054;2023-05-14T02:59:38;96163.84;;;10.63;100.00
2397;BME280;1209;48.410;9.054;2023-05-14T03:02:04;96146.00;;;10.66;100.00
2397;BME280;1209;48.410;9.054;2023-05-14T03:04:29;96148.28;;;10.69;100.00
2397;BME280;1209;48.410;9.054;2023-05-14T03:06:54;96155.28;;;10.69;100.00
2397;BME280;1209;48.410;9.054;2023-05-14T03:09:20;96149.88;;;10.70;100.00
2397;BME280;1209;48.410;9.054;2023-05-14T03:11:45;96141.06;;;10.71;100.00
2397;BME280;1209;48.410;9.054;2023-05-14T03:14:11;96151.16;;;10.75;100.00
2397;BME280;1209;48.410;9.054;2023-05-14T03:16:36;96153.13;;;10.72;100.00
2397;BME280;1209;48.410;9.054;2023-05-14T03:19:02;96149.53;;;10.73;100.00
2397;BME280;1209;48.410;9.054;2023-05-14T03:21:27;96147.72;;;10.74;100.00
2397;BME280;1209;48.410;9.054;2023-05-14T03:23:53;96149.53;;;10.73;100.00
2397;BME280;1209;48.410;9.054;2023-05-14T03:26:18;96148.09;;;10.71;100.00
2397;BME280;1209;48.410;9.054;2023-05-14T03:28:43;96147.91;;;10.72;100.00
2397;BME280;1209;48.410;9.054;2023-05-14T03:31:09;96155.75;;;10.72;100.00
2397;BME280;1209;48.410;9.054;2023-05-14T03:33:34;96148.44;;;10.68;100.00
2397;BME280;1209;48.410;9.054;2023-05-14T03:36:00;96149.69;;;10.57;100.00
2397;BME280;1209;48.410;9.054;2023-05-14T03:38:25;96150.84;;;10.55;100.00
2397;BME280;1209;48.410;9.054;2023-05-14T03:40:50;96147.09;;;10.57;100.00
2397;BME280;1209;48.410;9.054;2023-05-14T03:43:16;96141.50;;;10.60;100.00
2397;BME280;1209;48.410;9.054;2023-05-14T03:45:41;96145.38;;;10.64;100.00
2397;BME280;1209;48.410;9.054;2023-05-14T03:48:06;96143.13;;;10.61;100.00
2397;BME280;1209;48.410;9.054;2023-05-14T03:50:32;96145.09;;;10.59;100.00
2397;BME280;1209;48.410;9.054;2023-05-14T03:52:57;96140.88;;;10.58;100.00
2397;BME280;1209;48.410;9.054;2023-05-14T03:55:22;96145.28;;;10.58;100.00
2397;BME280;1209;48.410;9.054;2023-05-14T03:57:48;96150.31;;;10.59;100.00
2397;BME280;1209;48.410;9.054;2023-05-14T04:00:13;96155.38;;;10.61;100.00
2397;BME280;1209;48.410;9.054;2023-05-14T04:02:39;96140.34;;;10.63;100.00
2397;BME280;1209;48.410;9.054;2023-05-14T04:05:05;96148.28;;;10.69;100.00
2397;BME280;1209;48.410;9.054;2023-05-14T04:07:30;96139.72;;;10.76;100.00
2397;BME280;1209;48.410;9.054;2023-05-14T04:09:55;96146.19;;;10.65;100.00
2397;BME280;1209;48.410;9.054;2023-05-14T04:12:21;96144.66;;;10.70;100.00
2397;BME280;1209;48.410;9.054;2023-05-14T04:14:46;96143.69;;;10.71;100.00
2397;BME280;1209;48.410;9.054;2023-05-14T04:17:11;96144.13;;;10.75;100.00
2397;BME280;1209;48.410;9.054;2023-05-14T04:19:37;96142.69;;;10.72;100.00
2397;BME280;1209;48.410;9.054;2023-05-14T04:22:03;96142.31;;;10.76;100.00
2397;BME280;1209;48.410;9.054;2023-05-14T04:24:29;96141.97;;;10.79;100.00
2397;BME280;1209;48.410;9.054;2023-05-14T04:26:54;96145.75;;;10.76;100.00
2397;BME280;1209;48.410;9.054;2023-05-14T04:29:19;96143.88;;;10.85;100.00
2397;BME280;1209;48.410;9.054;2023-05-14T04:31:44;96140.00;;;10.81;100.00
2397;BME280;1209;48.410;9.054;2023-05-14T04:34:10;96137.47;;;10.72;100.00
2397;BME280;1209;48.410;9.054;2023-05-14T04:36:35;96137.75;;;10.78;100.00
2397;BME280;1209;48.410;9.054;2023-05-14T04:39:00;96137.75;;;10.78;100.00
2397;BME280;1209;48.410;9.054;2023-05-14T04:41:26;96139.19;;;10.80;100.00
2397;BME280;1209;48.410;9.054;2023-05-14T04:43:54;96141.56;;;10.90;100.00
2397;BME280;1209;48.410;9.054;2023-05-14T04:46:20;96133.06;;;10.88;100.00
2397;BME280;1209;48.410;9.054;2023-05-14T04:48:46;96135.66;;;10.88;100.00
2397;BME280;1209;48.410;9.054;2023-05-14T04:51:12;96139.19;;;10.80;100.00
2397;BME280;1209;48.410;9.054;2023-05-14T04:53:38;96136.03;;;10.85;100.00
2397;BME280;1209;48.410;9.054;2023-05-14T04:56:03;96135.66;;;10.88;100.00
2397;BME280;1209;48.410;9.054;2023-05-14T04:58:28;96140.38;;;10.92;100.00
2397;BME280;1209;48.410;9.054;2023-05-14T05:00:56;96137.47;;;10.87;100.00
2397;BME280;1209;48.410;9.054;2023-05-14T05:03:22;96145.50;;;10.86;100.00
2397;BME280;1209;48.410;9.054;2023-05-14T05:05:47;96144.25;;;10.96;100.00
2397;BME280;1209;48.410;9.054;2023-05-14T05:08:12;96140.47;;;10.99;100.00
2397;BME280;1209;48.410;9.054;2023-05-14T05:10:38;96142.09;;;11.00;100.00
2397;BME280;1209;48.410;9.054;2023-05-14T05:13:03;96137.50;;;11.02;100.00
2397;BME280;1209;48.410;9.054;2023-05-14T05:15:28;96144.16;;;11.04;100.00
2397;BME280;1209;48.410;9.054;2023-05-14T05:17:53;96137.94;;;11.06;100.00
2397;BME280;1209;48.410;9.054;2023-05-14T05:20:19;96132.44;;;11.15;100.00
2397;BME280;1209;48.410;9.054;2023-05-14T05:22:44;96134.63;;;11.12;100.00
2397;BME280;1209;48.410;9.054;2023-05-14T05:25:10;96139.38;;;11.08;100.00
2397;BME280;1209;48.410;9.054;2023-05-14T05:27:36;96134.78;;;11.10;100.00
2397;BME280;1209;48.410;9.054;2023-05-14T05:30:03;96133.81;;;11.11;100.00
2397;BME280;1209;48.410;9.054;2023-05-14T05:32:28;96133.91;;;11.03;100.00
2397;BME280;1209;48.410;9.054;2023-05-14T05:34:54;96145.16;;;11.03;100.00
2397;BME280;1209;48.410;9.054;2023-05-14T05:37:19;96135.44;;;10.97;100.00
2397;BME280;1209;48.410;9.054;2023-05-14T05:39:44;96145.16;;;11.18;100.00
2397;BME280;1209;48.410;9.054;2023-05-14T05:42:11;96130.28;;;11.04;100.00
2397;BME280;1209;48.410;9.054;2023-05-14T05:44:36;96133.16;;;11.09;100.00
2397;BME280;1209;48.410;9.054;2023-05-14T05:47:02;96135.97;;;11.08;100.00
2397;BME280;1209;48.410;9.054;2023-05-14T05:49:27;96135.47;;;11.33;100.00
2397;BME280;1209;48.410;9.054;2023-05-14T05:51:53;96130.25;;;11.33;100.00
2397;BME280;1209;48.410;9.054;2023-05-14T05:54:18;96138.75;;;11.35;100.00
2397;BME280;1209;48.410;9.054;2023-05-14T05:56:43;96133.34;;;11.37;100.00
2397;BME280;1209;48.410;9.054;2023-05-14T05:59:08;96130.81;;;11.14;100.00
2397;BME280;1209;48.410;9.054;2023-05-14T06:01:34;96131.78;;;11.28;100.00
2397;BME280;1209;48.410;9.054;2023-05-14T06:03:59;96130.00;;;11.28;100.00
2397;BME280;1209;48.410;9.054;2023-05-14T06:06:24;96131.34;;;11.24;100.00
2397;BME280;1209;48.410;9.054;2023-05-14T06:08:50;96131.88;;;11.34;100.00
2397;BME280;1209;48.410;9.054;2023-05-14T06:11:15;96130.97;;;11.57;100.00
2397;BME280;1209;48.410;9.054;2023-05-14T06:13:41;96128.38;;;11.42;100.00
2397;BME280;1209;48.410;9.054;2023-05-14T06:16:06;96123.41;;;11.32;100.00
2397;BME280;1209;48.410;9.054;2023-05-14T06:18:31;96136.03;;;11.44;100.00
2397;BME280;1209;48.410;9.054;2023-05-14T06:20:57;96141.78;;;11.54;100.00
2397;BME280;1209;48.410;9.054;2023-05-14T06:23:24;96132.78;;;11.42;100.00
2397;BME280;1209;48.410;9.054;2023-05-14T06:25:50;96134.31;;;11.51;100.00
2397;BME280;1209;48.410;9.054;2023-05-14T06:28:16;96131.13;;;11.55;100.00
2397;BME280;1209;48.410;9.054;2023-05-14T06:30:41;96130.22;;;11.63;100.00
2397;BME280;1209;48.410;9.054;2023-05-14T06:33:06;96132.63;;;11.43;100.00
2397;BME280;1209;48.410;9.054;2023-05-14T06:35:31;96134.19;;;11.59;100.00
2397;BME280;1209;48.410;9.054;2023-05-14T06:37:58;96141.47;;;11.78;100.00
2397;BME280;1209;48.410;9.054;2023-05-14T06:40:24;96129.09;;;11.72;100.00
2397;BME280;1209;48.410;9.054;2023-05-14T06:42:49;96136.31;;;11.70;100.00
2397;BME280;1209;48.410;9.054;2023-05-14T06:45:14;96137.69;;;11.81;100.00
2397;BME280;1209;48.410;9.054;2023-05-14T06:47:39;96131.78;;;11.93;100.00
2397;BME280;1209;48.410;9.054;2023-05-14T06:50:05;96140.66;;;11.92;100.00
2397;BME280;1209;48.410;9.054;2023-05-14T06:52:30;96139.22;;;11.90;100.00
2397;BME280;1209;48.410;9.054;2023-05-14T06:54:56;96140.47;;;11.94;100.00
2397;BME280;1209;48.410;9.054;2023-05-14T06:57:21;96140.75;;;11.84;100.00
2397;BME280;1209;48.410;9.054;2023-05-14T06:59:46;96142.00;;;11.88;100.00
2397;BME280;1209;48.410;9.054;2023-05-14T07:02:11;96141.75;;;11.68;100.00
2397;BME280;1209;48.410;9.054;2023-05-14T07:04:37;96135.66;;;11.47;100.00
2397;BME280;1209;48.410;9.054;2023-05-14T07:07:02;96136.56;;;11.54;100.00
2397;BME280;1209;48.410;9.054;2023-05-14T07:09:28;96136.50;;;11.68;100.00
2397;BME280;1209;48.410;9.054;2023-05-14T07:11:53;96139.38;;;11.74;100.00
2397;BME280;1209;48.410;9.054;2023-05-14T07:14:18;96138.19;;;11.55;100.00
2397;BME280;1209;48.410;9.054;2023-05-14T07:16:43;96140.63;;;11.42;100.00
2397;BME280;1209;48.410;9.054;2023-05-14T07:19:10;96135.59;;;11.40;100.00
2397;BME280;1209;48.410;9.054;2023-05-14T07:21:36;96137.00;;;11.57;100.00
2397;BME280;1209;48.410;9.054;2023-05-14T07:24:01;96138.53;;;11.52;100.00
2397;BME280;1209;48.410;9.054;2023-05-14T07:26:26;96135.25;;;11.64;100.00
2397;BME280;1209;48.410;9.054;2023-05-14T07:28:51;96132.38;;;11.59;100.00
2397;BME280;1209;48.410;9.054;2023-05-14T07:31:17;96128.22;;;11.65;100.00
2397;BME280;1209;48.410;9.054;2023-05-14T07:33:42;96127.28;;;11.51;100.00
2397;BME280;1209;48.410;9.054;2023-05-14T07:36:07;96126.22;;;11.46;100.00
2397;BME280;1209;48.410;9.054;2023-05-14T07:38:33;96131.94;;;11.56;100.00
2397;BME280;1209;48.410;9.054;2023-05-14T07:40:58;96128.09;;;11.52;100.00
2397;BME280;1209;48.410;9.054;2023-05-14T07:43:24;96122.63;;;11.68;100.00
2397;BME280;1209;48.410;9.054;2023-05-14T07:45:50;96125.50;;;11.73;100.00
2397;BME280;1209;48.410;9.054;2023-05-14T07:48:15;96128.53;;;11.77;100.00
2397;BME280;1209;48.410;9.054;2023-05-14T07:50:41;96121.50;;;11.77;100.00
2397;BME280;1209;48.410;9.054;2023-05-14T07:53:06;96126.13;;;11.90;100.00
2397;BME280;1209;48.410;9.054;2023-05-14T07:55:32;96120.72;;;11.91;100.00
2397;BME280;1209;48.410;9.054;2023-05-14T07:57:57;96125.69;;;12.08;100.00
2397;BME280;1209;48.410;9.054;2023-05-14T08:00:22;96123.81;;;12.02;100.00
2397;BME280;1209;48.410;9.054;2023-05-14T08:02:47;96124.44;;;12.04;100.00
2397;BME280;1209;48.410;9.054;2023-05-14T08:05:13;96129.31;;;11.85;100.00
2397;BME280;1209;48.410;9.054;2023-05-14T08:07:38;96122.38;;;11.99;100.00
2397;BME280;1209;48.410;9.054;2023-05-14T08:10:04;96127.78;;;12.19;100.00
2397;BME280;1209;48.410;9.054;2023-05-14T08:12:31;96136.28;;;12.00;100.00
2397;BME280;1209;48.410;9.054;2023-05-14T08:14:57;96132.16;;;11.90;100.00
2397;BME280;1209;48.410;9.054;2023-05-14T08:17:22;96121.38;;;12.00;100.00
2397;BME280;1209;48.410;9.054;2023-05-14T08:19:48;96124.63;;;12.02;100.00
2397;BME280;1209;48.410;9.054;2023-05-14T08:22:13;96126.38;;;12.16;100.00
2397;BME280;1209;48.410;9.054;2023-05-14T08:24:39;96127.41;;;12.22;100.00
2397;BME280;1209;48.410;9.054;2023-05-14T08:27:04;96128.47;;;12.27;100.00
2397;BME280;1209;48.410;9.054;2023-05-14T08:29:30;96123.09;;;12.57;100.00
2397;BME280;1209;48.410;9.054;2023-05-14T08:31:55;96118.28;;;12.60;100.00
2397;BME280;1209;48.410;9.054;2023-05-14T08:34:21;96119.50;;;12.37;100.00
2397;BME280;1209;48.410;9.054;2023-05-14T08:36:47;96129.28;;;12.49;100.00
2397;BME280;1209;48.410;9.054;2023-05-14T08:39:12;96118.84;;;12.56;100.00
2397;BME280;1209;48.410;9.054;2023-05-14T08:41:38;96125.94;;;12.90;100.00
2397;BME280;1209;48.410;9.054;2023-05-14T08:44:12;96124.78;;;12.99;100.00
2397;BME280;1209;48.410;9.054;2023-05-14T08:46:39;96120.91;;;12.88;100.00
2397;BME280;1209;48.410;9.054;2023-05-14T08:51:46;96121.56;;;12.97;100.00
2397;BME280;1209;48.410;9.054;2023-05-14T08:54:14;96128.22;;;13.00;100.00
2397;BME280;1209;48.410;9.054;2023-05-14T08:56:42;96121.03;;;13.15;100.00
2397;BME280;1209;48.410;9.054;2023-05-14T08:59:08;96125.16;;;13.24;100.00
2397;BME280;1209;48.410;9.054;2023-05-14T09:01:35;96125.34;;;13.22;100.00
2397;BME280;1209;48.410;9.054;2023-05-14T09:04:01;96124.66;;;13.14;100.00
2397;BME280;1209;48.410;9.054;2023-05-14T09:06:31;96122.66;;;13.16;100.00
2397;BME280;1209;48.410;9.054;2023-05-14T09:08:57;96123.84;;;13.13;100.00
2397;BME280;1209;48.410;9.054;2023-05-14T09:11:22;96124.59;;;13.01;100.00
2397;BME280;1209;48.410;9.054;2023-05-14T09:13:48;96123.72;;;12.87;100.00
2397;BME280;1209;48.410;9.054;2023-05-14T09:16:14;96122.72;;;13.22;100.00
2397;BME280;1209;48.410;9.054;2023-05-14T09:18:43;96119.41;;;13.42;100.00
2397;BME280;1209;48.410;9.054;2023-05-14T09:21:09;96120.28;;;13.62;100.00
2397;BME280;1209;48.410;9.054;2023-05-14T09:23:34;96119.41;;;13.48;100.00
2397;BME280;1209;48.410;9.054;2023-05-14T09:26:03;96119.03;;;13.51;100.00
2397;BME280;1209;48.410;9.054;2023-05-14T09:28:29;96119.75;;;13.80;100.00
2397;BME280;1209;48.410;9.054;2023-05-14T09:30:54;96117.72;;;13.75;100.00
2397;BME280;1209;48.410;9.054;2023-05-14T09:33:26;96114.59;;;13.59;100.00
2397;BME280;1209;48.410;9.054;2023-05-14T09:35:56;96111.97;;;13.52;100.00
2397;BME280;1209;48.410;9.054;2023-05-14T09:38:27;96113.47;;;13.74;100.00
2397;BME280;1209;48.410;9.054;2023-05-14T09:40:52;96107.03;;;13.90;100.00
2397;BME280;1209;48.410;9.054;2023-05-14T09:43:18;96105.63;;;14.01;100.00
2397;BME280;1209;48.410;9.054;2023-05-14T09:45:43;96105.22;;;13.97;100.00
2397;BME280;1209;48.410;9.054;2023-05-14T09:48:09;96098.16;;;13.84;100.00
2397;BME280;1209;48.410;9.054;2023-05-14T09:50:41;96101.19;;;14.08;100.00
2397;BME280;1209;48.410;9.054;2023-05-14T09:53:07;96088.06;;;14.08;100.00
2397;BME280;1209;48.410;9.054;2023-05-14T09:55:32;96096.00;;;14.21;100.00
2397;BME280;1209;48.410;9.054;2023-05-14T09:57:57;96098.00;;;14.39;100.00
2397;BME280;1209;48.410;9.054;2023-05-14T10:00:23;96093.56;;;14.39;100.00
2397;BME280;1209;48.410;9.054;2023-05-14T10:02:49;96097.56;;;14.15;100.00
2397;BME280;1209;48.410;9.054;2023-05-14T10:05:17;96094.94;;;14.15;100.00
2397;BME280;1209;48.410;9.054;2023-05-14T10:07:48;96090.53;;;14.29;100.00
2397;BME280;1209;48.410;9.054;2023-05-14T10:10:18;96090.94;;;14.26;100.00
2397;BME280;1209;48.410;9.054;2023-05-14T10:12:50;96092.78;;;14.45;100.00
2397;BME280;1209;48.410;9.054;2023-05-14T10:15:19;96087.66;;;14.11;100.00
2397;BME280;1209;48.410;9.054;2023-05-14T10:17:51;96085.88;;;14.25;100.00
2397;BME280;1209;48.410;9.054;2023-05-14T10:20:19;96084.25;;;14.37;100.00
2397;BME280;1209;48.410;9.054;2023-05-14T10:22:46;96083.47;;;14.36;100.00
2397;BME280;1209;48.410;9.054;2023-05-14T10:25:12;96081.84;;;14.48;100.00
2397;BME280;1209;48.410;9.054;2023-05-14T10:27:38;96081.25;;;14.46;100.00
2397;BME280;1209;48.410;9.054;2023-05-14T10:30:05;96078.41;;;14.48;100.00
2397;BME280;1209;48.410;9.054;2023-05-14T10:32:34;96079.00;;;14.83;100.00
2397;BME280;1209;48.410;9.054;2023-05-14T10:35:14;96075.78;;;14.55;100.00
2397;BME280;1209;48.410;9.054;2023-05-14T10:37:40;96074.56;;;14.70;100.00
2397;BME280;1209;48.410;9.054;2023-05-14T10:40:05;96072.56;;;14.46;100.00
2397;BME280;1209;48.410;9.054;2023-05-14T10:42:33;96072.16;;;14.56;100.00
2397;BME280;1209;48.410;9.054;2023-05-14T10:45:14;96068.69;;;14.82;100.00
2397;BME280;1209;48.410;9.054;2023-05-14T10:47:45;96061.78;;;14.94;100.00
2397;BME280;1209;48.410;9.054;2023-05-14T10:50:12;96063.06;;;15.36;100.00
2397;BME280;1209;48.410;9.054;2023-05-14T10:52:43;96059.16;;;15.90;100.00
2397;BME280;1209;48.410;9.054;2023-05-14T10:55:12;96062.97;;;16.25;100.00
2397;BME280;1209;48.410;9.054;2023-05-14T10:57:38;96053.72;;;16.16;100.00
2397;BME280;1209;48.410;9.054;2023-05-14T11:00:05;96057.16;;;15.85;100.00
2397;BME280;1209;48.410;9.054;2023-05-14T11:02:40;96055.06;;;15.94;100.00
2397;BME280;1209;48.410;9.054;2023-05-14T11:07:46;96048.31;;;16.04;100.00
2397;BME280;1209;48.410;9.054;2023-05-14T11:10:16;96048.66;;;16.40;100.00
2397;BME280;1209;48.410;9.054;2023-05-14T11:12:44;96050.47;;;16.39;100.00
2397;BME280;1209;48.410;9.054;2023-05-14T11:15:15;96040.16;;;16.37;100.00
2397;BME280;1209;48.410;9.054;2023-05-14T11:17:42;96031.38;;;16.68;100.00
2397;BME280;1209;48.410;9.054;2023-05-14T11:20:08;96037.06;;;16.41;100.00
2397;BME280;1209;48.410;9.054;2023-05-14T11:22:35;96042.06;;;16.49;100.00
2397;BME280;1209;48.410;9.054;2023-05-14T11:25:01;96032.94;;;16.94;100.00
2397;BME280;1209;48.410;9.054;2023-05-14T11:27:27;96036.28;;;17.38;100.00
2397;BME280;1209;48.410;9.054;2023-05-14T11:29:53;96027.97;;;17.53;100.00
2397;BME280;1209;48.410;9.054;2023-05-14T11:32:20;96028.41;;;17.68;100.00
2397;BME280;1209;48.410;9.054;2023-05-14T11:34:46;96023.69;;;18.00;100.00
2397;BME280;1209;48.410;9.054;2023-05-14T11:37:13;96019.47;;;17.81;100.00
2397;BME280;1209;48.410;9.054;2023-05-14T11:39:45;96019.25;;;17.52;100.00
2397;BME280;1209;48.410;9.054;2023-05-14T11:42:11;96016.25;;;17.79;100.00
2397;BME280;1209;48.410;9.054;2023-05-14T11:44:39;96016.78;;;17.99;100.00
2397;BME280;1209;48.410;9.054;2023-05-14T11:47:05;96010.88;;;17.97;100.00
2397;BME280;1209;48.410;9.054;2023-05-14T11:49:30;96010.16;;;18.55;100.00
2397;BME280;1209;48.410;9.054;2023-05-14T11:52:00;96007.72;;;18.18;100.00
2397;BME280;1209;48.410;9.054;2023-05-14T11:54:29;96004.66;;;18.45;100.00
2397;BME280;1209;48.410;9.054;2023-05-14T11:56:56;96007.03;;;18.11;100.00
2397;BME280;1209;48.410;9.054;2023-05-14T11:59:26;96001.91;;;17.86;100.00
2397;BME280;1209;48.410;9.054;2023-05-14T12:01:53;95996.44;;;18.00;100.00
2397;BME280;1209;48.410;9.054;2023-05-14T12:04:19;95991.63;;;18.08;100.00
2397;BME280;1209;48.410;9.054;2023-05-14T12:06:48;95995.19;;;18.14;100.00
2397;BME280;1209;48.410;9.054;2023-05-14T12:09:16;95987.28;;;18.72;100.00
2397;BME280;1209;48.410;9.054;2023-05-14T12:11:43;95979.81;;;19.21;100.00
2397;BME280;1209;48.410;9.054;2023-05-14T12:14:10;95980.13;;;18.38;100.00
2397;BME280;1209;48.410;9.054;2023-05-14T12:16:38;95980.94;;;18.03;100.00
2397;BME280;1209;48.410;9.054;2023-05-14T12:19:04;95967.75;;;19.13;100.00
2397;BME280;1209;48.410;9.054;2023-05-14T12:21:29;95974.31;;;19.96;90.77
2397;BME280;1209;48.410;9.054;2023-05-14T12:23:57;95969.81;;;19.97;92.33
2397;BME280;1209;48.410;9.054;2023-05-14T12:26:24;95970.94;;;20.01;93.68
2397;BME280;1209;48.410;9.054;2023-05-14T12:28:57;95976.59;;;19.59;98.06
2397;BME280;1209;48.410;9.054;2023-05-14T12:31:30;95969.22;;;19.21;96.38
2397;BME280;1209;48.410;9.054;2023-05-14T12:33:55;95970.72;;;18.30;100.00
2397;BME280;1209;48.410;9.054;2023-05-14T12:36:21;95971.28;;;18.32;100.00
2397;BME280;1209;48.410;9.054;2023-05-14T12:38:56;95971.63;;;18.24;100.00
2397;BME280;1209;48.410;9.054;2023-05-14T12:41:22;95964.81;;;17.93;100.00
2397;BME280;1209;48.410;9.054;2023-05-14T12:43:47;95966.88;;;17.49;100.00
2397;BME280;1209;48.410;9.054;2023-05-14T12:46:13;95959.63;;;17.45;100.00
2397;BME280;1209;48.410;9.054;2023-05-14T12:48:39;95952.34;;;17.58;100.00
2397;BME280;1209;48.410;9.054;2023-05-14T12:51:04;95950.72;;;17.57;100.00
2397;BME280;1209;48.410;9.054;2023-05-14T12:53:30;95945.75;;;17.91;100.00
2397;BME280;1209;48.410;9.054;2023-05-14T12:55:56;95944.72;;;18.39;99.83
2397;BME280;1209;48.410;9.054;2023-05-14T12:58:21;95948.28;;;18.56;97.93
2397;BME280;1209;48.410;9.054;2023-05-14T13:00:46;95935.00;;;19.03;99.66
2397;BME280;1209;48.410;9.054;2023-05-14T13:03:12;95934.19;;;19.02;97.30
2397;BME280;1209;48.410;9.054;2023-05-14T13:05:37;95925.63;;;19.12;96.76
2397;BME280;1209;48.410;9.054;2023-05-14T13:08:02;95920.94;;;20.26;91.38
2397;BME280;1209;48.410;9.054;2023-05-14T13:10:28;95919.78;;;20.56;84.07
2397;BME280;1209;48.410;9.054;2023-05-14T13:12:54;95918.88;;;19.95;87.41
2397;BME280;1209;48.410;9.054;2023-05-14T13:15:20;95917.59;;;19.64;88.87
2397;BME280;1209;48.410;9.054;2023-05-14T13:17:46;95921.13;;;20.03;89.87
2397;BME280;1209;48.410;9.054;2023-05-14T13:20:11;95920.22;;;19.80;91.88
2397;BME280;1209;48.410;9.054;2023-05-14T13:22:37;95926.50;;;20.63;89.04